Terminal Aerodrome Forecast
Issued by NWS

Home | Current Version | Previous Version | Text Only | Print | Product List | Glossary On
Versions: 1 2 3 4 5 6 7 8 9 10 11 12 13 14 15 16 17 18 19 20 21
000
FTUS43 KGRB 191700
TAFATW
TAF
KATW 191724Z 1918/2018 19015G22KT P6SM SCT120 BKN250
     FM200000 20010KT P6SM BKN100 BKN250 WS015/20040KT
     FM200600 21008KT 6SM BR BKN035 BKN080 WS010/22040KT
      TEMPO 2007/2009 3SM SHRA OVC035
     FM200900 23010KT P6SM OVC012 WS015/23035KT
     FM201500 26010G16KT P6SM SCT015 BKN150=

USA.gov is the U.S. government's official web portal to all federal, state and local government web resources and services.